sensor_id;sensor_type;location;lat;lon;timestamp;temperature;humidity
20504;DHT22;10410;51.046;6.980;2023-07-02T00:03:13;16.90;99.90
20504;DHT22;10410;51.046;6.980;2023-07-02T00:10:14;16.90;99.90
20504;DHT22;10410;51.046;6.980;2023-07-02T00:17:14;16.90;99.90
20504;DHT22;10410;51.046;6.980;2023-07-02T00:24:15;16.90;99.90
20504;DHT22;10410;51.046;6.980;2023-07-02T00:31:16;16.90;99.90
20504;DHT22;10410;51.046;6.980;2023-07-02T00:38:16;16.90;99.90
20504;DHT22;10410;51.046;6.980;2023-07-02T00:45:17;16.90;99.90
20504;DHT22;10410;51.046;6.980;2023-07-02T00:52:17;16.80;99.90
20504;DHT22;10410;51.046;6.980;2023-07-02T00:59:20;16.80;99.90
20504;DHT22;10410;51.046;6.980;2023-07-02T01:06:28;16.80;99.90
20504;DHT22;10410;51.046;6.980;2023-07-02T01:13:30;16.80;99.90
20504;DHT22;10410;51.046;6.980;2023-07-02T01:20:30;16.80;99.90
20504;DHT22;10410;51.046;6.980;2023-07-02T01:27:31;16.80;99.90
20504;DHT22;10410;51.046;6.980;2023-07-02T01:34:31;16.80;99.90
20504;DHT22;10410;51.046;6.980;2023-07-02T01:41:44;16.70;99.90
20504;DHT22;10410;51.046;6.980;2023-07-02T01:48:44;16.70;99.90
20504;DHT22;10410;51.046;6.980;2023-07-02T01:55:45;16.70;99.90
20504;DHT22;10410;51.046;6.980;2023-07-02T02:02:45;16.70;99.90
20504;DHT22;10410;51.046;6.980;2023-07-02T02:09:45;16.70;99.90
20504;DHT22;10410;51.046;6.980;2023-07-02T02:16:46;16.60;99.90
20504;DHT22;10410;51.046;6.980;2023-07-02T02:31:37;16.50;99.90
20504;DHT22;10410;51.046;6.980;2023-07-02T02:38:38;16.40;99.90
20504;DHT22;10410;51.046;6.980;2023-07-02T02:45:39;16.30;99.90
20504;DHT22;10410;51.046;6.980;2023-07-02T02:52:40;16.20;99.90
20504;DHT22;10410;51.046;6.980;2023-07-02T02:59:41;16.10;99.90
20504;DHT22;10410;51.046;6.980;2023-07-02T03:06:42;16.00;99.90
20504;DHT22;10410;51.046;6.980;2023-07-02T03:13:42;16.00;99.90
20504;DHT22;10410;51.046;6.980;2023-07-02T03:20:43;16.00;99.90
20504;DHT22;10410;51.046;6.980;2023-07-02T03:27:44;15.90;99.90
20504;DHT22;10410;51.046;6.980;2023-07-02T03:34:45;15.80;99.90
20504;DHT22;10410;51.046;6.980;2023-07-02T03:41:45;15.80;99.90
20504;DHT22;10410;51.046;6.980;2023-07-02T03:48:45;15.80;99.90
20504;DHT22;10410;51.046;6.980;2023-07-02T03:55:46;15.80;99.90
20504;DHT22;10410;51.046;6.980;2023-07-02T04:02:46;15.80;99.90
20504;DHT22;10410;51.046;6.980;2023-07-02T04:09:46;15.80;99.90
20504;DHT22;10410;51.046;6.980;2023-07-02T04:16:47;15.80;99.90
20504;DHT22;10410;51.046;6.980;2023-07-02T04:23:47;15.80;99.90
20504;DHT22;10410;51.046;6.980;2023-07-02T04:30:48;15.90;99.90
20504;DHT22;10410;51.046;6.980;2023-07-02T04:37:50;15.90;99.90
20504;DHT22;10410;51.046;6.980;2023-07-02T04:44:51;15.90;99.90
20504;DHT22;10410;51.046;6.980;2023-07-02T04:51:51;16.00;99.90
20504;DHT22;10410;51.046;6.980;2023-07-02T04:58:53;16.00;99.90
20504;DHT22;10410;51.046;6.980;2023-07-02T05:05:54;16.00;99.90
20504;DHT22;10410;51.046;6.980;2023-07-02T05:12:54;16.10;99.90
20504;DHT22;10410;51.046;6.980;2023-07-02T05:19:54;16.10;99.90
20504;DHT22;10410;51.046;6.980;2023-07-02T05:26:55;16.20;99.90
20504;DHT22;10410;51.046;6.980;2023-07-02T05:33:55;16.20;99.90
20504;DHT22;10410;51.046;6.980;2023-07-02T05:40:55;16.30;99.90
20504;DHT22;10410;51.046;6.980;2023-07-02T05:47:56;16.30;99.90
20504;DHT22;10410;51.046;6.980;2023-07-02T05:54:56;16.40;99.90
20504;DHT22;10410;51.046;6.980;2023-07-02T06:01:57;16.50;99.90
20504;DHT22;10410;51.046;6.980;2023-07-02T06:08:57;16.60;99.90
20504;DHT22;10410;51.046;6.980;2023-07-02T06:15:57;16.70;99.90
20504;DHT22;10410;51.046;6.980;2023-07-02T06:22:58;16.70;99.90
20504;DHT22;10410;51.046;6.980;2023-07-02T06:29:59;16.90;99.90
20504;DHT22;10410;51.046;6.980;2023-07-02T06:36:59;16.90;99.90
20504;DHT22;10410;51.046;6.980;2023-07-02T06:43:59;17.00;99.90
20504;DHT22;10410;51.046;6.980;2023-07-02T06:50:59;17.00;99.90
20504;DHT22;10410;51.046;6.980;2023-07-02T06:58:00;17.00;99.90
20504;DHT22;10410;51.046;6.980;2023-07-02T07:05:00;17.10;99.90
20504;DHT22;10410;51.046;6.980;2023-07-02T07:12:01;17.30;99.90
20504;DHT22;10410;51.046;6.980;2023-07-02T07:19:01;17.40;99.90
20504;DHT22;10410;51.046;6.980;2023-07-02T07:26:02;17.60;99.90
20504;DHT22;10410;51.046;6.980;2023-07-02T07:33:02;17.70;99.90
20504;DHT22;10410;51.046;6.980;2023-07-02T07:40:03;17.90;99.90
20504;DHT22;10410;51.046;6.980;2023-07-02T07:47:06;18.00;99.90
20504;DHT22;10410;51.046;6.980;2023-07-02T07:54:06;18.10;99.90
20504;DHT22;10410;51.046;6.980;2023-07-02T08:01:07;18.20;99.90
20504;DHT22;10410;51.046;6.980;2023-07-02T08:08:07;18.30;99.90
20504;DHT22;10410;51.046;6.980;2023-07-02T08:15:08;18.40;99.90
20504;DHT22;10410;51.046;6.980;2023-07-02T08:22:08;18.40;99.90
20504;DHT22;10410;51.046;6.980;2023-07-02T08:29:08;18.50;99.90
20504;DHT22;10410;51.046;6.980;2023-07-02T08:36:09;18.50;99.90
20504;DHT22;10410;51.046;6.980;2023-07-02T08:43:09;18.70;99.90
20504;DHT22;10410;51.046;6.980;2023-07-02T08:50:10;18.90;99.90
20504;DHT22;10410;51.046;6.980;2023-07-02T08:57:11;18.90;99.90
20504;DHT22;10410;51.046;6.980;2023-07-02T09:11:18;18.90;99.90
20504;DHT22;10410;51.046;6.980;2023-07-02T09:18:22;18.90;99.90
20504;DHT22;10410;51.046;6.980;2023-07-02T09:25:36;19.10;99.90
20504;DHT22;10410;51.046;6.980;2023-07-02T09:32:37;19.30;99.90
20504;DHT22;10410;51.046;6.980;2023-07-02T09:39:38;19.40;99.90
20504;DHT22;10410;51.046;6.980;2023-07-02T09:46:49;19.50;99.90
20504;DHT22;10410;51.046;6.980;2023-07-02T09:53:53;19.70;99.90
20504;DHT22;10410;51.046;6.980;2023-07-02T10:00:54;20.00;99.90
20504;DHT22;10410;51.046;6.980;2023-07-02T10:07:55;19.90;99.90
20504;DHT22;10410;51.046;6.980;2023-07-02T10:14:57;19.60;99.90
20504;DHT22;10410;51.046;6.980;2023-07-02T10:22:02;19.40;99.90
20504;DHT22;10410;51.046;6.980;2023-07-02T10:29:03;19.60;99.90
20504;DHT22;10410;51.046;6.980;2023-07-02T10:36:04;19.90;99.90
20504;DHT22;10410;51.046;6.980;2023-07-02T10:43:04;19.80;99.90
20504;DHT22;10410;51.046;6.980;2023-07-02T10:50:17;19.80;99.90
20504;DHT22;10410;51.046;6.980;2023-07-02T10:57:18;19.90;99.90
20504;DHT22;10410;51.046;6.980;2023-07-02T11:04:22;20.00;99.90
20504;DHT22;10410;51.046;6.980;2023-07-02T11:11:24;20.30;99.90
20504;DHT22;10410;51.046;6.980;2023-07-02T11:18:30;20.30;99.90
20504;DHT22;10410;51.046;6.980;2023-07-02T11:25:32;20.30;99.90
20504;DHT22;10410;51.046;6.980;2023-07-02T11:32:48;20.70;99.90
20504;DHT22;10410;51.046;6.980;2023-07-02T11:39:49;20.90;99.90
20504;DHT22;10410;51.046;6.980;2023-07-02T11:46:50;20.40;99.90
20504;DHT22;10410;51.046;6.980;2023-07-02T11:53:51;19.80;99.90
20504;DHT22;10410;51.046;6.980;2023-07-02T12:00:51;19.50;99.90
20504;DHT22;10410;51.046;6.980;2023-07-02T12:07:51;19.60;99.90
20504;DHT22;10410;51.046;6.980;2023-07-02T12:14:53;20.10;99.90
20504;DHT22;10410;51.046;6.980;2023-07-02T12:21:53;20.50;99.90
20504;DHT22;10410;51.046;6.980;2023-07-02T12:28:54;20.40;99.90
20504;DHT22;10410;51.046;6.980;2023-07-02T12:35:55;20.70;99.90
20504;DHT22;10410;51.046;6.980;2023-07-02T12:42:55;21.20;99.90
20504;DHT22;10410;51.046;6.980;2023-07-02T12:49:56;21.30;99.90
20504;DHT22;10410;51.046;6.980;2023-07-02T12:56:57;21.50;99.90
20504;DHT22;10410;51.046;6.980;2023-07-02T13:03:57;21.80;99.20
20504;DHT22;10410;51.046;6.980;2023-07-02T13:10:58;22.30;98.40
20504;DHT22;10410;51.046;6.980;2023-07-02T13:17:58;22.40;98.40
20504;DHT22;10410;51.046;6.980;2023-07-02T13:24:58;22.90;98.00
20504;DHT22;10410;51.046;6.980;2023-07-02T13:31:59;23.30;96.80
20504;DHT22;10410;51.046;6.980;2023-07-02T13:38:59;23.30;95.70
20504;DHT22;10410;51.046;6.980;2023-07-02T13:46:00;23.50;94.90
20504;DHT22;10410;51.046;6.980;2023-07-02T13:53:01;23.90;95.50
20504;DHT22;10410;51.046;6.980;2023-07-02T14:00:01;23.90;94.50
20504;DHT22;10410;51.046;6.980;2023-07-02T14:07:05;23.60;94.00
20504;DHT22;10410;51.046;6.980;2023-07-02T14:14:05;23.20;93.60
20504;DHT22;10410;51.046;6.980;2023-07-02T14:21:06;23.50;93.90
20504;DHT22;10410;51.046;6.980;2023-07-02T14:28:06;23.90;92.60
20504;DHT22;10410;51.046;6.980;2023-07-02T14:35:07;24.00;92.80
20504;DHT22;10410;51.046;6.980;2023-07-02T14:42:08;24.30;90.70
20504;DHT22;10410;51.046;6.980;2023-07-02T14:49:08;24.70;91.30
20504;DHT22;10410;51.046;6.980;2023-07-02T14:56:09;24.30;91.80
20504;DHT22;10410;51.046;6.980;2023-07-02T15:03:09;24.50;91.80
20504;DHT22;10410;51.046;6.980;2023-07-02T15:10:09;24.60;91.70
20504;DHT22;10410;51.046;6.980;2023-07-02T15:17:10;24.80;91.60
20504;DHT22;10410;51.046;6.980;2023-07-02T15:24:10;24.30;90.50
20504;DHT22;10410;51.046;6.980;2023-07-02T15:31:12;23.80;91.60
20504;DHT22;10410;51.046;6.980;2023-07-02T15:38:13;23.40;92.30
20504;DHT22;10410;51.046;6.980;2023-07-02T15:45:13;23.70;91.60
20504;DHT22;10410;51.046;6.980;2023-07-02T15:52:14;23.80;91.40
20504;DHT22;10410;51.046;6.980;2023-07-02T15:59:14;24.30;92.10
20504;DHT22;10410;51.046;6.980;2023-07-02T16:06:16;24.40;90.90
20504;DHT22;10410;51.046;6.980;2023-07-02T16:13:18;23.90;91.40
20504;DHT22;10410;51.046;6.980;2023-07-02T16:20:19;23.40;92.30
20504;DHT22;10410;51.046;6.980;2023-07-02T16:27:20;23.30;92.80
20504;DHT22;10410;51.046;6.980;2023-07-02T16:34:21;23.10;92.90
20504;DHT22;10410;51.046;6.980;2023-07-02T16:41:21;23.20;93.00
20504;DHT22;10410;51.046;6.980;2023-07-02T16:48:22;23.40;93.00
20504;DHT22;10410;51.046;6.980;2023-07-02T16:55:23;23.30;93.00
20504;DHT22;10410;51.046;6.980;2023-07-02T17:02:23;23.10;93.20
20504;DHT22;10410;51.046;6.980;2023-07-02T17:16:33;23.80;93.10
20504;DHT22;10410;51.046;6.980;2023-07-02T17:23:33;23.70;93.40
20504;DHT22;10410;51.046;6.980;2023-07-02T17:30:34;23.30;93.40
20504;DHT22;10410;51.046;6.980;2023-07-02T17:37:36;23.10;93.90
20504;DHT22;10410;51.046;6.980;2023-07-02T17:44:38;23.40;94.20
20504;DHT22;10410;51.046;6.980;2023-07-02T17:51:39;23.60;93.40
20504;DHT22;10410;51.046;6.980;2023-07-02T17:58:39;23.00;94.00
20504;DHT22;10410;51.046;6.980;2023-07-02T18:05:39;22.80;93.70
20504;DHT22;10410;51.046;6.980;2023-07-02T18:12:40;22.70;94.50
20504;DHT22;10410;51.046;6.980;2023-07-02T18:19:40;22.40;94.70
20504;DHT22;10410;51.046;6.980;2023-07-02T18:26:41;22.20;95.20
20504;DHT22;10410;51.046;6.980;2023-07-02T18:33:41;22.10;95.70
20504;DHT22;10410;51.046;6.980;2023-07-02T18:40:43;21.90;95.90
20504;DHT22;10410;51.046;6.980;2023-07-02T18:47:45;21.70;96.30
20504;DHT22;10410;51.046;6.980;2023-07-02T18:54:46;21.60;96.70
20504;DHT22;10410;51.046;6.980;2023-07-02T19:01:48;21.40;96.90
20504;DHT22;10410;51.046;6.980;2023-07-02T19:08:49;21.30;97.20
20504;DHT22;10410;51.046;6.980;2023-07-02T19:15:50;21.20;97.60
20504;DHT22;10410;51.046;6.980;2023-07-02T19:22:51;21.10;97.80
20504;DHT22;10410;51.046;6.980;2023-07-02T19:29:51;21.00;98.20
20504;DHT22;10410;51.046;6.980;2023-07-02T19:36:57;20.90;98.50
20504;DHT22;10410;51.046;6.980;2023-07-02T19:43:57;20.80;98.60
20504;DHT22;10410;51.046;6.980;2023-07-02T19:51:02;20.80;98.80
20504;DHT22;10410;51.046;6.980;2023-07-02T19:58:03;20.70;98.90
20504;DHT22;10410;51.046;6.980;2023-07-02T20:05:04;20.70;99.10
20504;DHT22;10410;51.046;6.980;2023-07-02T20:12:07;20.60;99.20
20504;DHT22;10410;51.046;6.980;2023-07-02T20:19:08;20.40;99.10
20504;DHT22;10410;51.046;6.980;2023-07-02T20:26:13;20.40;99.10
20504;DHT22;10410;51.046;6.980;2023-07-02T20:33:14;20.20;99.10
20504;DHT22;10410;51.046;6.980;2023-07-02T20:40:15;20.10;99.20
20504;DHT22;10410;51.046;6.980;2023-07-02T20:47:19;19.90;99.20
20504;DHT22;10410;51.046;6.980;2023-07-02T20:54:23;19.80;99.40
20504;DHT22;10410;51.046;6.980;2023-07-02T21:01:24;19.80;99.30
20504;DHT22;10410;51.046;6.980;2023-07-02T21:08:25;19.70;99.20
20504;DHT22;10410;51.046;6.980;2023-07-02T21:15:25;19.60;99.20
20504;DHT22;10410;51.046;6.980;2023-07-02T21:22:25;19.50;99.30
20504;DHT22;10410;51.046;6.980;2023-07-02T21:29:28;19.40;99.50
20504;DHT22;10410;51.046;6.980;2023-07-02T21:36:28;19.30;99.80
20504;DHT22;10410;51.046;6.980;2023-07-02T21:43:30;19.10;99.90
20504;DHT22;10410;51.046;6.980;2023-07-02T21:50:30;18.90;99.90
20504;DHT22;10410;51.046;6.980;2023-07-02T21:57:31;18.70;99.90
20504;DHT22;10410;51.046;6.980;2023-07-02T22:04:31;18.50;99.90
20504;DHT22;10410;51.046;6.980;2023-07-02T22:11:31;18.30;99.90
20504;DHT22;10410;51.046;6.980;2023-07-02T22:18:32;18.00;99.90
20504;DHT22;10410;51.046;6.980;2023-07-02T22:25:41;17.80;99.40
20504;DHT22;10410;51.046;6.980;2023-07-02T22:32:45;17.60;99.00
20504;DHT22;10410;51.046;6.980;2023-07-02T22:39:45;17.40;99.20
20504;DHT22;10410;51.046;6.980;2023-07-02T22:46:46;17.30;99.20
20504;DHT22;10410;51.046;6.980;2023-07-02T22:53:46;17.10;99.40
20504;DHT22;10410;51.046;6.980;2023-07-02T23:00:47;16.90;99.60
20504;DHT22;10410;51.046;6.980;2023-07-02T23:07:47;16.80;99.80
20504;DHT22;10410;51.046;6.980;2023-07-02T23:14:48;16.70;99.90
20504;DHT22;10410;51.046;6.980;2023-07-02T23:21:48;16.60;99.90
20504;DHT22;10410;51.046;6.980;2023-07-02T23:28:49;16.50;99.90
20504;DHT22;10410;51.046;6.980;2023-07-02T23:35:59;16.40;99.90
20504;DHT22;10410;51.046;6.980;2023-07-02T23:43:00;16.40;99.90
20504;DHT22;10410;51.046;6.980;2023-07-02T23:50:00;16.40;99.90
20504;DHT22;10410;51.046;6.980;2023-07-02T23:57:01;16.30;99.90
